Terminal Aerodrome Forecast
Issued by NWS

Home | Current Version | Previous Version | Text Only | Print | Product List | Glossary On
Versions: 1 2 3 4 5 6 7 8 9 10 11 12
252
FTUS41 KBGM 250540
TAFRME
TAF
KRME 250540Z 2506/2606 15007KT P6SM SCT040 OVC100
      TEMPO 2506/2510 4SM -SHRA OVC040
     FM251000 11007KT P6SM -SHRA OVC030
     FM251400 10007KT 4SM -RA BR OVC015
     FM252200 VRB04KT 2SM -RA BR OVC008
     FM260400 28007KT 4SM -SHRA BR OVC008=

USA.gov is the U.S. government's official web portal to all federal, state and local government web resources and services.